Time;durP1;ratioP1;P1;durP2;ratioP2;P2;SDS_P1;SDS_P2;PMS_P1;PMS_P2;Temp;Humidity;BMP_temperature;BMP_pressure;BME280_temperature;BME280_humidity;BME280_pressure;Samples;Min_cycle;Max_cycle;Signal;HPM_P1;HPM_P2
2022/11/24 00:02:22;;;;;;;;;;;6.20;99.90;;;;;;5037098;28;19963;-75
2022/11/24 00:04:49;;;;;;;;;;;6.20;99.90;;;;;;5035166;28;19925;-75
2022/11/24 00:07:20;;;;;;;;;;;6.20;99.90;;;;;;5027014;28;19990;-75
2022/11/24 00:09:47;;;;;;;;;;;6.20;99.90;;;;;;5017021;28;19933;-74
2022/11/24 00:12:18;;;;;;;;;;;6.20;99.90;;;;;;5030124;28;20300;-74
2022/11/24 00:14:45;;;;;;;;;;;6.30;99.90;;;;;;5027262;28;19925;-74
2022/11/24 00:17:12;;;;;;;;;;;6.30;99.90;;;;;;5018497;28;19974;-74
2022/11/24 00:19:44;;;;;;;;;;;6.30;99.90;;;;;;5034327;28;19932;-74
2022/11/24 00:22:15;;;;;;;;;;;6.30;99.90;;;;;;5019126;28;20379;-74
2022/11/24 00:24:47;;;;;;;;;;;6.20;99.90;;;;;;5019536;28;20342;-74
2022/11/24 00:27:18;;;;;;;;;;;6.30;99.90;;;;;;5031144;28;19932;-74
2022/11/24 00:29:50;;;;;;;;;;;6.20;99.90;;;;;;5010048;28;19948;-74
2022/11/24 00:32:21;;;;;;;;;;;6.20;99.90;;;;;;5019299;28;19991;-74
2022/11/24 00:34:53;;;;;;;;;;;6.20;99.90;;;;;;5025745;28;19925;-74
2022/11/24 00:37:24;;;;;;;;;;;6.20;99.90;;;;;;5021542;28;20287;-75
2022/11/24 00:39:56;;;;;;;;;;;6.20;99.90;;;;;;5051009;28;19928;-74
2022/11/24 00:42:28;;;;;;;;;;;6.20;99.90;;;;;;5033929;28;19933;-74
2022/11/24 00:44:54;;;;;;;;;;;6.20;99.90;;;;;;5018505;28;20395;-74
2022/11/24 00:47:27;;;;;;;;;;;6.10;99.90;;;;;;5051981;28;19925;-74
2022/11/24 00:49:59;;;;;;;;;;;6.00;99.90;;;;;;5033645;28;20419;-74
2022/11/24 00:52:25;;;;;;;;;;;6.00;99.90;;;;;;5035745;28;19924;-74
2022/11/24 00:54:57;;;;;;;;;;;6.00;99.90;;;;;;5054113;28;19947;-74
2022/11/24 00:57:29;;;;;;;;;;;6.00;99.90;;;;;;5028021;28;19929;-74
2022/11/24 01:00:00;;;;;;;;;;;6.00;99.90;;;;;;5033980;28;19948;-74
2022/11/24 01:02:32;;;;;;;;;;;6.00;99.90;;;;;;5035375;28;19925;-73
2022/11/24 01:04:58;;;;;;;;;;;6.00;99.90;;;;;;5042287;28;20371;-74
2022/11/24 01:07:25;;;;;;;;;;;5.90;99.90;;;;;;5014510;28;19984;-74
2022/11/24 01:09:56;;;;;;;;;;;5.90;99.90;;;;;;5051270;28;19974;-74
2022/11/24 01:12:28;;;;;;;;;;;6.00;99.90;;;;;;5016402;28;19929;-74
2022/11/24 01:15:00;;;;;;;;;;;6.00;99.90;;;;;;5033000;28;20375;-74
2022/11/24 01:17:31;;;;;;;;;;;5.90;99.90;;;;;;5033549;28;19932;-73
2022/11/24 01:20:03;;;;;;;;;;;5.90;99.90;;;;;;5037583;28;19936;-74
2022/11/24 01:22:37;;;;;;;;;;;5.90;99.90;;;;;;5018120;28;19925;-74
2022/11/24 01:25:08;;;;;;;;;;;5.90;99.90;;;;;;5018223;28;19929;-74
2022/11/24 01:27:39;;;;;;;;;;;5.90;99.90;;;;;;5041489;28;19932;-74
2022/11/24 01:30:06;;;;;;;;;;;5.80;99.90;;;;;;5017626;28;19925;-73
2022/11/24 01:32:37;;;;;;;;;;;5.80;99.90;;;;;;5033098;28;20329;-74
2022/11/24 01:35:09;;;;;;;;;;;5.80;99.90;;;;;;5042090;28;20012;-74
2022/11/24 01:37:41;;;;;;;;;;;5.80;99.90;;;;;;5014713;28;19952;-73
2022/11/24 01:40:07;;;;;;;;;;;5.80;99.90;;;;;;5031470;28;19979;-73
2022/11/24 01:42:45;;;;;;;;;;;5.80;99.90;;;;;;5034267;28;19958;-73
2022/11/24 01:45:22;;;;;;;;;;;5.70;99.90;;;;;;5035452;28;20379;-75
2022/11/24 01:47:54;;;;;;;;;;;5.70;99.90;;;;;;5010529;28;19929;-74
2022/11/24 01:50:26;;;;;;;;;;;5.70;99.90;;;;;;5031318;28;19924;-74
2022/11/24 01:52:54;;;;;;;;;;;5.70;99.90;;;;;;5031193;28;19928;-75
2022/11/24 01:55:28;;;;;;;;;;;5.70;99.90;;;;;;5028565;28;19979;-74
2022/11/24 01:58:04;;;;;;;;;;;5.70;99.90;;;;;;5014646;28;19929;-74
2022/11/24 02:00:37;;;;;;;;;;;5.70;99.90;;;;;;5032700;28;19952;-74
2022/11/24 02:03:10;;;;;;;;;;;5.70;99.90;;;;;;5033475;28;20299;-75
2022/11/24 02:05:49;;;;;;;;;;;5.70;99.90;;;;;;5026089;28;19979;-75
2022/11/24 02:08:25;;;;;;;;;;;5.70;99.90;;;;;;5012263;28;19948;-74
2022/11/24 02:10:56;;;;;;;;;;;5.70;99.90;;;;;;5034005;28;19928;-75
2022/11/24 02:13:28;;;;;;;;;;;5.70;99.90;;;;;;5018088;28;20339;-74
2022/11/24 02:16:00;;;;;;;;;;;5.70;99.90;;;;;;5033325;28;19928;-75
2022/11/24 02:18:31;;;;;;;;;;;5.70;99.90;;;;;;5032333;28;20266;-76
2022/11/24 02:21:03;;;;;;;;;;;5.70;99.90;;;;;;5051353;28;20402;-73
2022/11/24 02:23:54;;;;;;;;;;;5.60;99.90;;;;;;5048156;28;19925;-75
2022/11/24 02:26:36;;;;;;;;;;;5.70;99.90;;;;;;5032760;28;19932;-77
2022/11/24 02:29:08;;;;;;;;;;;5.60;99.90;;;;;;5029211;28;19932;-74
2022/11/24 02:31:42;;;;;;;;;;;5.60;99.90;;;;;;5013911;28;19974;-75
2022/11/24 02:34:08;;;;;;;;;;;5.70;99.90;;;;;;5033205;28;19928;-78
2022/11/24 02:36:40;;;;;;;;;;;5.70;99.90;;;;;;5032791;28;19915;-74
2022/11/24 02:39:12;;;;;;;;;;;5.60;99.90;;;;;;5032211;28;19929;-74
2022/11/24 02:41:50;;;;;;;;;;;5.70;99.90;;;;;;5033964;28;19958;-74
2022/11/24 02:44:23;;;;;;;;;;;5.70;99.90;;;;;;5022114;28;19944;-73
2022/11/24 02:47:05;;;;;;;;;;;5.70;99.90;;;;;;5032957;28;20444;-74
2022/11/24 02:49:37;;;;;;;;;;;5.70;99.90;;;;;;5032951;28;19925;-73
2022/11/24 02:52:09;;;;;;;;;;;5.80;99.90;;;;;;5033160;28;20039;-72
2022/11/24 02:54:41;;;;;;;;;;;5.80;99.90;;;;;;5010514;28;19925;-74
2022/11/24 02:57:12;;;;;;;;;;;5.80;99.90;;;;;;5028914;28;19932;-74
2022/11/24 02:59:45;;;;;;;;;;;5.90;99.90;;;;;;5018767;28;19971;-73
2022/11/24 03:02:16;;;;;;;;;;;5.90;99.90;;;;;;5050929;28;19979;-73
2022/11/24 03:04:48;;;;;;;;;;;6.00;99.90;;;;;;5033105;28;19925;-74
2022/11/24 03:07:20;;;;;;;;;;;6.00;99.90;;;;;;5050471;28;20391;-74
2022/11/24 03:09:51;;;;;;;;;;;6.10;99.90;;;;;;5049570;28;20431;-75
2022/11/24 03:12:23;;;;;;;;;;;6.10;99.90;;;;;;5025108;28;20284;-73
2022/11/24 03:14:49;;;;;;;;;;;6.10;99.90;;;;;;5016684;28;19933;-74
2022/11/24 03:17:21;;;;;;;;;;;6.10;99.90;;;;;;5027219;28;19947;-74
2022/11/24 03:19:52;;;;;;;;;;;6.10;99.90;;;;;;5053515;28;19925;-74
2022/11/24 03:22:24;;;;;;;;;;;6.10;99.90;;;;;;5030321;28;19983;-74
2022/11/24 03:24:56;;;;;;;;;;;6.20;99.90;;;;;;5037625;28;19925;-73
2022/11/24 03:27:29;;;;;;;;;;;6.10;99.90;;;;;;5044725;28;20349;-74
2022/11/24 03:30:00;;;;;;;;;;;6.20;99.90;;;;;;5036432;28;19925;-73
2022/11/24 03:32:32;;;;;;;;;;;6.20;99.90;;;;;;5019600;28;19925;-75
2022/11/24 03:35:04;;;;;;;;;;;6.20;99.90;;;;;;5035298;28;20387;-74
2022/11/24 03:37:30;;;;;;;;;;;6.20;99.90;;;;;;5035735;28;20354;-74
2022/11/24 03:40:02;;;;;;;;;;;6.20;99.90;;;;;;5034990;28;19975;-75
2022/11/24 03:42:28;;;;;;;;;;;6.20;99.90;;;;;;5054286;28;20488;-74
2022/11/24 03:45:00;;;;;;;;;;;6.20;99.90;;;;;;5054178;28;19979;-75
2022/11/24 03:47:32;;;;;;;;;;;6.30;99.90;;;;;;5036689;28;19928;-74
2022/11/24 03:50:03;;;;;;;;;;;6.30;99.90;;;;;;5053139;28;19929;-74
2022/11/24 03:52:35;;;;;;;;;;;6.30;99.90;;;;;;5018760;28;20008;-74
2022/11/24 03:55:01;;;;;;;;;;;6.30;99.90;;;;;;5019615;28;19925;-74
2022/11/24 03:57:33;;;;;;;;;;;6.30;99.90;;;;;;5035484;28;19979;-75
2022/11/24 04:00:05;;;;;;;;;;;6.30;99.90;;;;;;5006787;28;19925;-73
2022/11/24 04:02:37;;;;;;;;;;;6.30;99.90;;;;;;5053653;28;19925;-74
2022/11/24 04:05:09;;;;;;;;;;;6.30;99.90;;;;;;5027848;28;19936;-74
2022/11/24 04:07:35;;;;;;;;;;;6.30;99.90;;;;;;5053197;28;19925;-75
2022/11/24 04:10:07;;;;;;;;;;;6.20;99.90;;;;;;5053460;28;19954;-74
2022/11/24 04:12:42;;;;;;;;;;;6.30;99.90;;;;;;5027482;28;19974;-74
2022/11/24 04:15:15;;;;;;;;;;;6.20;99.90;;;;;;5049810;28;19929;-73
2022/11/24 04:17:48;;;;;;;;;;;6.20;99.90;;;;;;5034275;28;19925;-75
2022/11/24 04:20:19;;;;;;;;;;;6.20;99.90;;;;;;5053686;28;19932;-74
2022/11/24 04:22:51;;;;;;;;;;;6.10;99.90;;;;;;5054010;28;19925;-74
2022/11/24 04:25:23;;;;;;;;;;;6.10;99.90;;;;;;5027912;28;19925;-74
2022/11/24 04:27:55;;;;;;;;;;;6.10;99.90;;;;;;5052041;28;20442;-74
2022/11/24 04:30:22;;;;;;;;;;;6.00;99.90;;;;;;5039099;28;19926;-74
2022/11/24 04:32:54;;;;;;;;;;;6.10;99.90;;;;;;5036721;28;20281;-73
2022/11/24 04:35:21;;;;;;;;;;;6.10;99.90;;;;;;5035205;28;19971;-72
2022/11/24 04:37:47;;;;;;;;;;;6.00;99.90;;;;;;5051952;28;19928;-74
2022/11/24 04:40:19;;;;;;;;;;;6.00;99.90;;;;;;5053554;28;19983;-73
2022/11/24 04:42:51;;;;;;;;;;;5.90;99.90;;;;;;5053557;28;20311;-73
2022/11/24 04:45:23;;;;;;;;;;;5.90;99.90;;;;;;5012670;28;19929;-74
2022/11/24 04:47:54;;;;;;;;;;;6.00;99.90;;;;;;5031468;28;19991;-73
2022/11/24 04:50:26;;;;;;;;;;;5.90;99.90;;;;;;5038955;28;20651;-73
2022/11/24 04:52:53;;;;;;;;;;;6.00;99.90;;;;;;5035541;28;19970;-73
2022/11/24 04:55:24;;;;;;;;;;;5.90;99.90;;;;;;5044097;28;19975;-74
2022/11/24 04:57:56;;;;;;;;;;;6.00;99.90;;;;;;5034219;28;19925;-74
2022/11/24 05:00:27;;;;;;;;;;;6.00;99.90;;;;;;5038735;28;19924;-72
2022/11/24 05:02:59;;;;;;;;;;;6.00;99.90;;;;;;5052739;28;19925;-72
2022/11/24 05:05:30;;;;;;;;;;;6.10;99.90;;;;;;5031716;28;19970;-74
2022/11/24 05:08:02;;;;;;;;;;;6.10;99.90;;;;;;5034832;28;20270;-72
2022/11/24 05:10:35;;;;;;;;;;;6.20;99.90;;;;;;5018263;28;19925;-74
2022/11/24 05:13:09;;;;;;;;;;;6.20;99.90;;;;;;5014496;28;19925;-71
2022/11/24 05:15:40;;;;;;;;;;;6.30;99.90;;;;;;5053585;28;19928;-72
2022/11/24 05:18:14;;;;;;;;;;;6.30;99.90;;;;;;5050110;28;19924;-72
2022/11/24 05:20:46;;;;;;;;;;;6.30;99.90;;;;;;5019721;28;19971;-71
2022/11/24 05:23:18;;;;;;;;;;;6.30;99.90;;;;;;5035528;28;19925;-74
2022/11/24 05:25:50;;;;;;;;;;;6.20;99.90;;;;;;5036311;28;19955;-73
2022/11/24 05:28:21;;;;;;;;;;;6.20;99.90;;;;;;5048103;28;19925;-73
2022/11/24 05:30:53;;;;;;;;;;;6.10;99.90;;;;;;5035348;28;19972;-73
2022/11/24 05:33:27;;;;;;;;;;;6.10;99.90;;;;;;5053019;28;19925;-74
2022/11/24 05:36:00;;;;;;;;;;;6.10;99.90;;;;;;5035894;28;20398;-74
2022/11/24 05:38:32;;;;;;;;;;;6.10;99.90;;;;;;5016557;28;19975;-74
2022/11/24 05:41:04;;;;;;;;;;;6.00;99.90;;;;;;5031939;28;20322;-74
2022/11/24 05:43:36;;;;;;;;;;;6.00;99.90;;;;;;5026024;28;19925;-75
2022/11/24 05:46:07;;;;;;;;;;;6.00;99.90;;;;;;5028700;28;19971;-73
2022/11/24 05:48:39;;;;;;;;;;;6.00;99.90;;;;;;5033098;28;19925;-73
2022/11/24 05:51:10;;;;;;;;;;;6.00;99.90;;;;;;5025870;28;19936;-73
2022/11/24 05:53:42;;;;;;;;;;;6.00;99.90;;;;;;5011454;28;19986;-74
2022/11/24 05:56:13;;;;;;;;;;;6.00;99.90;;;;;;5033962;28;20076;-74
2022/11/24 05:58:45;;;;;;;;;;;6.00;99.90;;;;;;5033095;28;19971;-74
2022/11/24 06:01:16;;;;;;;;;;;6.00;99.90;;;;;;5034391;28;19936;-74
2022/11/24 06:03:48;;;;;;;;;;;6.00;99.90;;;;;;5018495;28;19979;-74
2022/11/24 06:06:19;;;;;;;;;;;6.00;99.90;;;;;;5021333;28;20383;-74
2022/11/24 06:08:51;;;;;;;;;;;5.90;99.90;;;;;;5026560;28;19937;-74
2022/11/24 06:11:23;;;;;;;;;;;5.90;99.90;;;;;;5033632;28;19932;-75
2022/11/24 06:13:54;;;;;;;;;;;5.80;99.90;;;;;;5030610;28;19936;-74
2022/11/24 06:16:21;;;;;;;;;;;5.80;99.90;;;;;;5017227;28;20354;-74
2022/11/24 06:18:52;;;;;;;;;;;5.70;99.90;;;;;;5028620;28;20371;-74
2022/11/24 06:21:24;;;;;;;;;;;5.70;99.90;;;;;;5012950;28;19929;-74
2022/11/24 06:23:56;;;;;;;;;;;5.80;99.90;;;;;;5016705;28;19933;-74
2022/11/24 06:26:27;;;;;;;;;;;5.80;99.90;;;;;;5031507;28;19972;-74
2022/11/24 06:28:59;;;;;;;;;;;5.80;99.90;;;;;;5031928;28;19925;-75
2022/11/24 06:31:31;;;;;;;;;;;5.80;99.90;;;;;;5028631;28;20048;-74
2022/11/24 06:34:06;;;;;;;;;;;5.80;99.90;;;;;;5033055;28;19979;-73
2022/11/24 06:36:38;;;;;;;;;;;5.80;99.90;;;;;;5044953;28;20453;-74
2022/11/24 06:39:10;;;;;;;;;;;5.80;99.90;;;;;;5028948;28;19983;-74
2022/11/24 06:41:41;;;;;;;;;;;5.90;99.90;;;;;;5042989;28;20554;-74
2022/11/24 06:44:13;;;;;;;;;;;5.90;99.90;;;;;;5033160;28;19986;-73
2022/11/24 06:46:44;;;;;;;;;;;5.90;99.90;;;;;;5030555;28;19929;-73
2022/11/24 06:49:11;;;;;;;;;;;5.80;99.90;;;;;;5027106;28;19974;-73
2022/11/24 06:51:42;;;;;;;;;;;5.90;99.90;;;;;;5022552;28;20354;-73
2022/11/24 06:54:15;;;;;;;;;;;5.90;99.90;;;;;;5018529;28;19925;-72
2022/11/24 06:56:46;;;;;;;;;;;5.90;99.90;;;;;;5024169;28;19929;-75
2022/11/24 06:59:19;;;;;;;;;;;5.90;99.90;;;;;;5028656;28;19932;-73
2022/11/24 07:01:50;;;;;;;;;;;5.90;99.90;;;;;;5017865;28;19929;-72
2022/11/24 07:04:22;;;;;;;;;;;5.90;99.90;;;;;;5050820;28;19978;-73
2022/11/24 07:06:54;;;;;;;;;;;5.90;99.90;;;;;;5010271;28;19924;-76
2022/11/24 07:09:20;;;;;;;;;;;5.90;99.90;;;;;;5014734;28;19929;-73
2022/11/24 07:11:53;;;;;;;;;;;5.90;99.90;;;;;;5046618;28;19924;-74
2022/11/24 07:14:25;;;;;;;;;;;6.00;99.90;;;;;;5030067;28;20350;-73
2022/11/24 07:16:51;;;;;;;;;;;5.90;99.90;;;;;;5013212;28;20307;-72
2022/11/24 07:19:23;;;;;;;;;;;6.00;99.90;;;;;;5028916;28;19971;-72
2022/11/24 07:21:55;;;;;;;;;;;6.00;99.90;;;;;;5039758;28;19929;-73
2022/11/24 07:24:26;;;;;;;;;;;6.00;99.90;;;;;;5029882;28;19925;-74
2022/11/24 07:26:58;;;;;;;;;;;6.00;99.90;;;;;;5039542;28;19979;-73
2022/11/24 07:29:29;;;;;;;;;;;6.00;99.90;;;;;;5013850;28;20280;-73
2022/11/24 07:31:57;;;;;;;;;;;6.10;99.90;;;;;;5040491;28;19978;-73
2022/11/24 07:34:28;;;;;;;;;;;6.10;99.90;;;;;;5043345;28;19970;-72
2022/11/24 07:37:00;;;;;;;;;;;6.10;99.90;;;;;;5020244;28;19928;-73
2022/11/24 07:39:31;;;;;;;;;;;6.10;99.90;;;;;;5029797;28;19955;-74
2022/11/24 07:41:59;;;;;;;;;;;6.20;99.90;;;;;;5017206;28;19925;-75
2022/11/24 07:44:30;;;;;;;;;;;6.20;99.90;;;;;;5034782;28;19929;-72
2022/11/24 07:47:02;;;;;;;;;;;6.20;99.90;;;;;;5024536;28;19925;-73
2022/11/24 07:49:29;;;;;;;;;;;6.30;99.90;;;;;;5032162;28;19936;-72
2022/11/24 07:52:01;;;;;;;;;;;6.30;99.90;;;;;;5030432;28;19928;-73
2022/11/24 07:54:32;;;;;;;;;;;6.40;99.90;;;;;;5021105;28;19925;-73
2022/11/24 07:57:04;;;;;;;;;;;6.50;99.90;;;;;;5036694;28;19924;-74
2022/11/24 07:59:35;;;;;;;;;;;6.70;99.90;;;;;;5039589;28;20410;-72
2022/11/24 08:02:08;;;;;;;;;;;6.70;99.90;;;;;;5031264;28;19925;-73
2022/11/24 08:04:35;;;;;;;;;;;6.80;99.90;;;;;;5039796;28;19925;-74
2022/11/24 08:07:07;;;;;;;;;;;6.90;99.90;;;;;;5016828;28;19979;-74
2022/11/24 08:09:38;;;;;;;;;;;6.90;99.90;;;;;;5026362;28;19925;-74
2022/11/24 08:12:10;;;;;;;;;;;6.90;99.90;;;;;;5029585;28;20277;-74
2022/11/24 08:14:42;;;;;;;;;;;6.90;99.90;;;;;;5033583;28;20327;-74
2022/11/24 08:17:13;;;;;;;;;;;6.90;99.90;;;;;;5016353;28;19932;-74
2022/11/24 08:19:45;;;;;;;;;;;7.00;99.90;;;;;;5031528;28;19925;-75
2022/11/24 08:22:16;;;;;;;;;;;7.00;99.90;;;;;;5016670;28;19933;-73
2022/11/24 08:24:48;;;;;;;;;;;7.00;99.90;;;;;;5036063;28;19929;-75
2022/11/24 08:27:20;;;;;;;;;;;7.00;99.90;;;;;;5017545;28;19947;-74
2022/11/24 08:29:51;;;;;;;;;;;7.10;99.90;;;;;;5051705;28;19990;-75
2022/11/24 08:32:23;;;;;;;;;;;7.10;99.90;;;;;;5014021;28;19932;-76
2022/11/24 08:34:54;;;;;;;;;;;7.10;99.90;;;;;;5016419;28;19975;-73
2022/11/24 08:37:28;;;;;;;;;;;7.20;99.90;;;;;;5035571;28;19979;-73
2022/11/24 08:39:54;;;;;;;;;;;7.20;99.90;;;;;;5034328;28;19956;-74
2022/11/24 08:42:26;;;;;;;;;;;7.30;99.90;;;;;;5053859;28;19924;-74
2022/11/24 08:44:52;;;;;;;;;;;7.40;99.90;;;;;;5036187;28;19979;-75
2022/11/24 08:47:20;;;;;;;;;;;7.50;99.90;;;;;;5034260;28;19925;-74
2022/11/24 08:49:51;;;;;;;;;;;7.50;99.90;;;;;;5038781;28;19925;-74
2022/11/24 08:52:23;;;;;;;;;;;7.60;99.90;;;;;;5053763;28;20039;-74
2022/11/24 08:54:50;;;;;;;;;;;7.60;99.90;;;;;;5033776;28;20358;-74
2022/11/24 08:57:21;;;;;;;;;;;7.70;99.90;;;;;;5034601;28;20015;-74
2022/11/24 08:59:53;;;;;;;;;;;7.70;99.90;;;;;;5033487;28;19925;-74
2022/11/24 09:02:24;;;;;;;;;;;7.70;99.90;;;;;;5040120;28;19990;-74
2022/11/24 09:04:56;;;;;;;;;;;7.70;99.90;;;;;;5016708;28;20338;-75
2022/11/24 09:07:27;;;;;;;;;;;7.70;99.90;;;;;;5024579;28;19982;-74
2022/11/24 09:09:59;;;;;;;;;;;7.60;99.90;;;;;;5031490;28;20064;-74
2022/11/24 09:12:31;;;;;;;;;;;7.60;99.90;;;;;;5006493;28;19939;-74
2022/11/24 09:15:02;;;;;;;;;;;7.60;99.90;;;;;;5045269;28;19925;-74
2022/11/24 09:17:35;;;;;;;;;;;7.60;99.90;;;;;;5031948;28;19925;-75
2022/11/24 09:20:02;;;;;;;;;;;7.60;99.90;;;;;;5031830;28;19925;-75
2022/11/24 09:22:34;;;;;;;;;;;7.60;99.90;;;;;;5046488;28;19979;-75
2022/11/24 09:25:05;;;;;;;;;;;7.50;99.90;;;;;;5044315;28;19925;-74
2022/11/24 09:27:32;;;;;;;;;;;7.40;99.90;;;;;;5051501;28;20379;-75
2022/11/24 09:30:04;;;;;;;;;;;7.20;99.90;;;;;;5048542;28;20403;-76
2022/11/24 09:32:31;;;;;;;;;;;7.10;99.90;;;;;;5013189;28;19987;-74
2022/11/24 09:35:06;;;;;;;;;;;7.00;99.90;;;;;;5077239;28;19916;-74
2022/11/24 09:37:37;;;;;;;;;;;6.80;99.90;;;;;;5080020;28;20333;-73
2022/11/24 09:40:11;;;;;;;;;;;6.70;99.90;;;;;;5064498;28;19974;-74
2022/11/24 09:42:50;;;;;;;;;;;6.70;99.90;;;;;;5077050;28;19936;-74
2022/11/24 09:45:29;;;;;;;;;;;6.60;99.90;;;;;;5061269;28;19925;-74
2022/11/24 09:48:06;;;;;;;;;;;6.60;99.90;;;;;;5066566;28;20708;-74
2022/11/24 09:50:38;;;;;;;;;;;6.60;99.90;;;;;;5058923;28;19929;-76
2022/11/24 09:53:14;;;;;;;;;;;6.50;99.90;;;;;;5056685;28;19929;-75
2022/11/24 09:55:46;;;;;;;;;;;6.50;99.90;;;;;;5044623;28;19932;-75
2022/11/24 09:58:34;;;;;;;;;;;6.50;99.90;;;;;;5079186;28;19931;-74
2022/11/24 10:01:21;;;;;;;;;;;6.50;99.90;;;;;;5071979;28;19929;-75
2022/11/24 10:03:53;;;;;;;;;;;6.50;99.90;;;;;;5070545;28;19925;-74
2022/11/24 10:06:34;;;;;;;;;;;6.40;99.90;;;;;;5047535;28;20392;-75
2022/11/24 10:09:24;;;;;;;;;;;6.40;99.90;;;;;;5052824;28;19974;-74
2022/11/24 10:11:50;;;;;;;;;;;6.30;99.90;;;;;;5061849;28;19929;-73
2022/11/24 10:14:34;;;;;;;;;;;6.30;99.90;;;;;;5077988;28;19924;-74
2022/11/24 10:17:20;;;;;;;;;;;6.30;99.90;;;;;;5066222;28;19982;-75
2022/11/24 10:20:00;;;;;;;;;;;6.30;99.90;;;;;;5062176;28;20441;-75
2022/11/24 10:22:38;;;;;;;;;;;6.40;99.90;;;;;;5078062;28;20283;-74
2022/11/24 10:25:29;;;;;;;;;;;6.40;99.90;;;;;;5069697;28;19932;-74
2022/11/24 10:28:02;;;;;;;;;;;6.50;99.90;;;;;;5067969;28;19928;-75
2022/11/24 10:30:34;;;;;;;;;;;6.60;99.90;;;;;;5054212;28;19935;-74
2022/11/24 10:33:08;;;;;;;;;;;6.70;99.90;;;;;;5058309;28;19924;-75
2022/11/24 10:35:44;;;;;;;;;;;6.70;99.90;;;;;;5081682;28;19925;-74
2022/11/24 10:38:20;;;;;;;;;;;6.70;99.90;;;;;;5080712;28;19932;-75
2022/11/24 10:41:10;;;;;;;;;;;6.80;99.90;;;;;;5087580;28;19933;-74
2022/11/24 10:43:40;;;;;;;;;;;6.70;99.90;;;;;;5082870;28;20406;-74
2022/11/24 10:46:29;;;;;;;;;;;6.70;99.90;;;;;;5073780;28;19932;-73
2022/11/24 10:49:02;;;;;;;;;;;6.60;99.90;;;;;;5089452;28;20026;-74
2022/11/24 10:51:45;;;;;;;;;;;6.60;99.90;;;;;;5078332;28;19986;-74
2022/11/24 10:54:21;;;;;;;;;;;6.60;99.90;;;;;;5074180;28;20001;-74
2022/11/24 10:56:53;;;;;;;;;;;6.70;99.90;;;;;;5059873;28;19923;-76
2022/11/24 10:59:33;;;;;;;;;;;6.70;99.90;;;;;;5058194;28;20395;-74
2022/11/24 11:02:28;;;;;;;;;;;6.70;99.90;;;;;;5069123;28;19935;-74
2022/11/24 11:05:19;;;;;;;;;;;6.70;99.90;;;;;;5063134;28;20440;-74
2022/11/24 11:08:08;;;;;;;;;;;6.70;99.90;;;;;;5071134;28;19928;-74
2022/11/24 11:10:40;;;;;;;;;;;6.70;99.90;;;;;;5080198;28;19978;-74
2022/11/24 11:13:26;;;;;;;;;;;6.70;99.90;;;;;;5074716;28;19928;-74
2022/11/24 11:15:58;;;;;;;;;;;6.70;99.90;;;;;;5070233;28;19929;-74
2022/11/24 11:18:31;;;;;;;;;;;6.70;99.90;;;;;;5069624;28;19982;-74
2022/11/24 11:21:04;;;;;;;;;;;6.80;99.90;;;;;;5068962;28;19952;-74
2022/11/24 11:23:35;;;;;;;;;;;6.80;99.90;;;;;;5081109;28;20046;-76
2022/11/24 11:26:16;;;;;;;;;;;6.90;99.90;;;;;;5071816;28;19932;-75
2022/11/24 11:28:58;;;;;;;;;;;7.10;99.90;;;;;;5076838;28;20002;-74
2022/11/24 11:31:32;;;;;;;;;;;7.20;99.90;;;;;;5064559;28;19928;-74
2022/11/24 11:34:08;;;;;;;;;;;7.30;99.90;;;;;;5071528;28;19925;-76
2022/11/24 11:36:42;;;;;;;;;;;7.30;99.90;;;;;;5078388;28;20455;-74
2022/11/24 11:39:19;;;;;;;;;;;7.30;99.90;;;;;;5064128;28;19929;-74
2022/11/24 11:41:52;;;;;;;;;;;7.40;99.90;;;;;;5067479;28;19970;-77
2022/11/24 11:44:30;;;;;;;;;;;7.40;99.90;;;;;;5070102;28;19925;-75
2022/11/24 11:47:07;;;;;;;;;;;7.40;99.90;;;;;;5085225;28;19933;-74
2022/11/24 11:49:39;;;;;;;;;;;7.30;99.90;;;;;;5067760;28;19924;-74
2022/11/24 11:52:31;;;;;;;;;;;7.30;99.90;;;;;;5073855;28;19932;-77
2022/11/24 11:55:12;;;;;;;;;;;7.20;99.90;;;;;;5030659;28;19928;-74
2022/11/24 11:57:53;;;;;;;;;;;7.20;99.90;;;;;;5063461;28;19939;-74
2022/11/24 12:00:23;;;;;;;;;;;7.20;99.90;;;;;;5061416;28;19975;-74
2022/11/24 12:03:03;;;;;;;;;;;7.30;99.90;;;;;;5066023;28;19928;-74
2022/11/24 12:05:54;;;;;;;;;;;7.50;99.90;;;;;;5071504;28;19950;-74
2022/11/24 12:08:20;;;;;;;;;;;7.50;99.90;;;;;;5071782;28;19943;-74
2022/11/24 12:11:06;;;;;;;;;;;7.60;99.90;;;;;;5050914;28;19924;-74
2022/11/24 12:14:01;;;;;;;;;;;7.70;99.90;;;;;;5068611;28;19924;-74
2022/11/24 12:16:31;;;;;;;;;;;7.80;99.90;;;;;;5042955;28;19950;-74
2022/11/24 12:19:08;;;;;;;;;;;8.00;99.90;;;;;;5063537;28;19936;-73
2022/11/24 12:21:45;;;;;;;;;;;8.10;99.90;;;;;;5058696;28;19947;-74
2022/11/24 12:24:30;;;;;;;;;;;8.30;99.90;;;;;;5075357;28;19973;-73
2022/11/24 12:27:04;;;;;;;;;;;8.20;99.90;;;;;;5071297;28;19928;-73
2022/11/24 12:30:14;;;;;;;;;;;8.10;99.90;;;;;;5069348;28;19924;-74
2022/11/24 12:32:59;;;;;;;;;;;8.20;99.90;;;;;;4995102;28;19936;-75
2022/11/24 12:35:27;;;;;;;;;;;8.10;99.90;;;;;;4989588;28;19933;-75
2022/11/24 12:38:02;;;;;;;;;;;8.10;99.90;;;;;;5033880;28;20455;-74
2022/11/24 12:40:36;;;;;;;;;;;8.10;99.90;;;;;;5073934;28;20401;-75
2022/11/24 12:43:10;;;;;;;;;;;8.10;99.90;;;;;;5081158;28;19929;-73
2022/11/24 12:45:48;;;;;;;;;;;8.10;99.90;;;;;;5073023;28;20448;-72
2022/11/24 12:48:25;;;;;;;;;;;8.10;99.90;;;;;;5046369;28;19928;-73
2022/11/24 12:50:57;;;;;;;;;;;8.20;99.90;;;;;;5073070;28;19924;-75
2022/11/24 12:53:27;;;;;;;;;;;8.20;99.90;;;;;;5051492;28;20340;-74
2022/11/24 12:56:06;;;;;;;;;;;8.40;99.90;;;;;;5069708;28;19982;-74
2022/11/24 12:58:57;;;;;;;;;;;8.60;99.90;;;;;;5054504;28;19978;-74
2022/11/24 13:01:41;;;;;;;;;;;8.60;99.90;;;;;;5073296;28;19997;-73
2022/11/24 13:04:29;;;;;;;;;;;8.60;99.90;;;;;;5074151;28;19928;-74
2022/11/24 13:07:03;;;;;;;;;;;8.60;99.90;;;;;;5065334;28;19924;-73
2022/11/24 13:09:35;;;;;;;;;;;8.60;99.90;;;;;;5069305;28;19932;-75
2022/11/24 13:12:10;;;;;;;;;;;8.50;99.90;;;;;;5070743;28;19932;-75
2022/11/24 13:14:38;;;;;;;;;;;8.50;99.90;;;;;;5067891;28;19978;-74
2022/11/24 13:17:39;;;;;;;;;;;8.50;99.90;;;;;;5065484;28;19982;-73
2022/11/24 13:20:32;;;;;;;;;;;8.50;99.90;;;;;;5062325;28;19954;-73
2022/11/24 13:23:04;;;;;;;;;;;8.60;99.90;;;;;;5073104;28;19924;-74
2022/11/24 13:25:35;;;;;;;;;;;8.70;99.90;;;;;;5066778;28;19985;-73
2022/11/24 13:28:27;;;;;;;;;;;8.70;99.90;;;;;;5070876;28;19936;-74
2022/11/24 13:31:09;;;;;;;;;;;8.70;99.90;;;;;;5059908;28;20398;-73
2022/11/24 13:33:41;;;;;;;;;;;8.70;99.90;;;;;;5053641;28;19936;-74
2022/11/24 13:36:22;;;;;;;;;;;8.90;99.90;;;;;;5064948;28;19931;-73
2022/11/24 13:38:53;;;;;;;;;;;9.00;99.90;;;;;;5050962;28;19946;-74
2022/11/24 13:41:33;;;;;;;;;;;9.10;99.90;;;;;;5068164;28;20002;-75
2022/11/24 13:44:13;;;;;;;;;;;9.20;99.90;;;;;;5066153;28;19932;-75
2022/11/24 13:46:54;;;;;;;;;;;9.30;99.90;;;;;;5052280;28;19954;-73
2022/11/24 13:49:39;;;;;;;;;;;9.30;99.90;;;;;;5044675;28;19978;-74
2022/11/24 13:52:24;;;;;;;;;;;9.30;99.90;;;;;;5054302;28;19940;-73
2022/11/24 13:54:56;;;;;;;;;;;9.30;99.90;;;;;;5069005;28;19947;-76
2022/11/24 13:57:33;;;;;;;;;;;9.40;99.90;;;;;;5068068;28;19983;-74
2022/11/24 14:00:21;;;;;;;;;;;9.40;99.90;;;;;;5069718;28;19950;-74
2022/11/24 14:02:56;;;;;;;;;;;9.30;99.90;;;;;;5072842;28;19931;-74
2022/11/24 14:05:33;;;;;;;;;;;9.30;99.90;;;;;;5071199;28;19982;-75
2022/11/24 14:08:06;;;;;;;;;;;9.20;99.90;;;;;;5066067;28;19928;-74
2022/11/24 14:10:40;;;;;;;;;;;9.10;99.90;;;;;;5070894;28;19957;-75
2022/11/24 14:13:31;;;;;;;;;;;9.10;99.90;;;;;;5069882;28;19928;-74
2022/11/24 14:16:09;;;;;;;;;;;9.10;99.90;;;;;;5070277;28;19986;-74
2022/11/24 14:18:36;;;;;;;;;;;9.20;99.90;;;;;;5041082;28;19989;-74
2022/11/24 14:21:14;;;;;;;;;;;9.20;99.90;;;;;;5069288;28;19932;-74
2022/11/24 14:23:54;;;;;;;;;;;9.10;99.90;;;;;;5059487;28;19935;-74
2022/11/24 14:26:36;;;;;;;;;;;9.10;99.90;;;;;;5076393;28;19928;-74
2022/11/24 14:29:12;;;;;;;;;;;9.00;99.90;;;;;;5051996;28;20436;-74
2022/11/24 14:31:51;;;;;;;;;;;8.90;99.90;;;;;;5055622;28;19928;-74
2022/11/24 14:34:24;;;;;;;;;;;8.90;99.90;;;;;;5063556;28;19929;-73
2022/11/24 14:36:56;;;;;;;;;;;8.80;99.90;;;;;;5063109;28;19929;-73
2022/11/24 14:39:29;;;;;;;;;;;8.70;99.90;;;;;;5055189;28;19959;-73
2022/11/24 14:41:55;;;;;;;;;;;8.60;99.90;;;;;;5055771;28;20006;-74
2022/11/24 14:44:28;;;;;;;;;;;8.50;99.90;;;;;;5053888;28;19931;-74
2022/11/24 14:47:24;;;;;;;;;;;8.40;99.90;;;;;;5071641;28;20341;-73
2022/11/24 14:49:51;;;;;;;;;;;8.40;99.90;;;;;;5053122;28;19932;-75
2022/11/24 14:52:23;;;;;;;;;;;8.30;99.90;;;;;;5071710;28;20657;-73
2022/11/24 14:54:55;;;;;;;;;;;8.30;99.90;;;;;;5071056;28;19925;-74
2022/11/24 14:57:25;;;;;;;;;;;8.30;99.90;;;;;;5075098;28;19970;-75
2022/11/24 15:00:04;;;;;;;;;;;8.20;99.90;;;;;;5072171;28;19974;-74
2022/11/24 15:02:46;;;;;;;;;;;8.10;99.90;;;;;;5072150;28;19931;-74
2022/11/24 15:05:21;;;;;;;;;;;8.00;99.90;;;;;;5071368;28;19974;-73
2022/11/24 15:08:02;;;;;;;;;;;8.00;99.90;;;;;;5054491;28;19977;-74
2022/11/24 15:10:35;;;;;;;;;;;8.00;99.90;;;;;;5067698;28;20398;-73